Time;durP1;ratioP1;P1;durP2;ratioP2;P2;SDS_P1;SDS_P2;PMS_P1;PMS_P2;Temp;Humidity;BMP_temperature;BMP_pressure;BME280_temperature;BME280_humidity;BME280_pressure;Samples;Min_cycle;Max_cycle;Signal;HPM_P1;HPM_P2
2021/06/26 00:00:51;;;;;;;4.55;2.08;;;;;;;16.61;85.35;93163.80;1782315;80;21029;-80
2021/06/26 00:03:20;;;;;;;7.22;2.15;;;;;;;16.70;85.37;93162.55;1849984;75;22602;-81
2021/06/26 00:05:47;;;;;;;5.37;1.70;;;;;;;16.76;84.81;93169.64;1832105;77;21038;-86
2021/06/26 00:08:14;;;;;;;5.90;1.87;;;;;;;16.79;84.33;93152.29;1834566;77;21034;-82
2021/06/26 00:10:42;;;;;;;7.60;2.40;;;;;;;16.84;84.26;93171.55;1835306;77;21053;-77
2021/06/26 00:13:09;;;;;;;5.78;1.87;;;;;;;16.86;83.83;93163.66;1860416;77;21004;-81
2021/06/26 00:15:37;;;;;;;4.55;1.65;;;;;;;16.88;83.84;93164.73;1783894;77;21191;-80
2021/06/26 00:18:05;;;;;;;5.50;2.02;;;;;;;16.90;83.18;93158.81;1825798;77;20930;-84
2021/06/26 00:20:33;;;;;;;3.77;1.40;;;;;;;16.92;83.50;93176.98;1850950;77;21528;-79
2021/06/26 00:22:59;;;;;;;7.35;1.37;;;;;;;16.93;83.48;93171.67;1855115;77;21069;-81
2021/06/26 00:25:25;;;;;;;2.15;1.10;;;;;;;16.92;83.49;93165.99;1843130;77;21046;-84
2021/06/26 00:27:53;;;;;;;2.98;1.40;;;;;;;16.92;82.96;93170.11;1861033;77;21150;-82
2021/06/26 00:30:20;;;;;;;3.47;1.37;;;;;;;16.92;82.06;93175.61;1845719;77;21021;-81
2021/06/26 00:32:47;;;;;;;5.67;1.10;;;;;;;16.94;81.94;93173.97;1808056;77;21046;-81
2021/06/26 00:35:14;;;;;;;5.25;1.50;;;;;;;16.95;81.67;93176.86;1782316;80;21018;-80
2021/06/26 00:37:42;;;;;;;3.42;1.17;;;;;;;16.97;81.30;93179.19;1791042;77;21089;-80
2021/06/26 00:40:10;;;;;;;7.00;1.50;;;;;;;16.98;80.49;93191.70;1860354;77;21718;-83
2021/06/26 00:42:41;;;;;;;4.45;1.60;;;;;;;16.99;80.36;93186.37;1832836;77;21030;-80
2021/06/26 00:45:09;;;;;;;6.03;1.40;;;;;;;17.03;79.68;93184.88;1851627;77;21168;-82
2021/06/26 00:47:37;;;;;;;7.37;1.77;;;;;;;17.03;79.75;93181.52;1823949;77;21030;-84
2021/06/26 00:50:07;;;;;;;4.53;1.20;;;;;;;17.03;79.83;93187.02;1797027;77;21014;-83
2021/06/26 00:52:34;;;;;;;3.72;1.75;;;;;;;17.01;81.41;93196.31;1837883;77;22250;-84
2021/06/26 00:55:01;;;;;;;5.87;1.82;;;;;;;16.96;81.72;93199.02;1860161;77;21025;-82
2021/06/26 00:57:28;;;;;;;3.75;1.12;;;;;;;16.95;80.58;93199.45;1845852;77;21014;-83
2021/06/26 00:59:54;;;;;;;2.85;1.42;;;;;;;16.96;80.16;93190.78;1846377;77;21010;-83
2021/06/26 01:02:21;;;;;;;5.80;1.75;;;;;;;17.02;79.89;93193.73;1838226;77;21025;-83
2021/06/26 01:04:48;;;;;;;6.25;2.30;;;;;;;17.05;81.37;93193.45;1837084;77;21123;-85
2021/06/26 01:07:14;;;;;;;6.58;2.08;;;;;;;16.98;82.22;93191.09;1837538;78;21014;-82
2021/06/26 01:09:41;;;;;;;5.47;1.70;;;;;;;16.91;83.92;93186.44;1790158;78;21579;-81
2021/06/26 01:12:09;;;;;;;8.45;1.65;;;;;;;16.75;84.80;93190.07;1782789;80;21019;-82
2021/06/26 01:14:35;;;;;;;2.95;1.35;;;;;;;16.58;86.55;93190.73;1783726;80;21109;-83
2021/06/26 01:17:05;;;;;;;5.47;1.42;;;;;;;16.35;87.80;93181.45;1794220;77;21018;-81
2021/06/26 01:19:32;;;;;;;5.08;1.32;;;;;;;16.14;88.89;93180.13;1843632;77;20993;-81
2021/06/26 01:21:59;;;;;;;1.75;1.55;;;;;;;15.95;90.43;93179.09;1860224;77;21017;-82
2021/06/26 01:24:26;;;;;;;7.37;1.85;;;;;;;15.79;91.48;93171.07;1848542;77;21352;-82
2021/06/26 01:26:58;;;;;;;4.25;1.67;;;;;;;15.72;92.14;93169.92;1851504;77;21346;-86
2021/06/26 01:29:29;;;;;;;7.00;2.47;;;;;;;15.71;92.76;93166.99;1805334;78;21752;-84
2021/06/26 01:31:57;;;;;;;4.42;1.98;;;;;;;15.73;92.93;93156.98;1796766;77;21578;-82
2021/06/26 01:34:23;;;;;;;6.40;1.92;;;;;;;15.79;93.00;93159.34;1843009;77;21018;-80
2021/06/26 01:36:49;;;;;;;7.20;2.37;;;;;;;15.84;93.11;93149.23;1859491;77;20993;-82
2021/06/26 01:39:16;;;;;;;5.72;2.22;;;;;;;15.88;93.17;93150.50;1812802;77;21061;-83
2021/06/26 01:41:42;;;;;;;3.67;1.57;;;;;;;15.86;93.31;93148.78;1803969;77;21059;-80
2021/06/26 01:44:09;;;;;;;6.17;2.17;;;;;;;15.83;93.54;93147.67;1838551;77;21220;-78
2021/06/26 01:46:38;;;;;;;2.98;1.32;;;;;;;15.70;93.96;93142.16;1852667;77;21041;-81
2021/06/26 01:49:12;;;;;;;4.12;1.67;;;;;;;15.60;94.60;93137.70;1834571;77;21034;-84
2021/06/26 01:51:38;;;;;;;5.20;2.37;;;;;;;15.56;94.97;93132.93;1795672;78;20974;-82
2021/06/26 01:54:06;;;;;;;4.15;1.40;;;;;;;15.55;95.38;93132.77;1822986;76;21311;-82
2021/06/26 01:56:33;;;;;;;4.60;1.47;;;;;;;15.58;95.67;93137.99;1853069;77;21533;-82
2021/06/26 01:58:59;;;;;;;5.70;2.42;;;;;;;15.58;95.64;93130.54;1828792;78;21084;-81
2021/06/26 02:01:26;;;;;;;6.67;1.72;;;;;;;15.49;96.22;93129.78;1782431;80;21093;-81
2021/06/26 02:03:53;;;;;;;5.30;1.62;;;;;;;15.34;96.74;93120.41;1847074;77;20998;-82
2021/06/26 02:06:19;;;;;;;1.60;1.37;;;;;;;15.25;97.46;93114.80;1842156;77;21928;-82
2021/06/26 02:08:46;;;;;;;3.50;2.02;;;;;;;15.16;98.38;93102.33;1840641;77;21001;-82
2021/06/26 02:11:12;;;;;;;3.90;1.55;;;;;;;15.06;99.01;93095.31;1852540;77;21017;-79
2021/06/26 02:13:39;;;;;;;4.20;1.85;;;;;;;15.03;99.66;93089.94;1783169;80;21082;-84
2021/06/26 02:16:05;;;;;;;8.30;2.20;;;;;;;15.08;99.87;93085.30;1782890;80;21050;-81
2021/06/26 02:18:32;;;;;;;5.33;1.85;;;;;;;15.13;99.84;93075.20;1813669;77;21099;-83
2021/06/26 02:20:58;;;;;;;8.78;2.15;;;;;;;15.22;99.73;93071.22;1812157;78;21045;-83
2021/06/26 02:23:25;;;;;;;5.33;2.10;;;;;;;15.28;99.45;93066.77;1795882;77;21160;-83
2021/06/26 02:25:52;;;;;;;8.43;2.35;;;;;;;15.32;99.07;93071.38;1860456;77;21028;-81
2021/06/26 02:28:18;;;;;;;3.55;1.45;;;;;;;15.33;99.07;93079.16;1760457;78;21030;-83
2021/06/26 02:30:44;;;;;;;4.90;2.15;;;;;;;15.32;98.77;93081.73;1816619;78;21104;-81
2021/06/26 02:33:11;;;;;;;6.92;1.67;;;;;;;15.27;98.91;93080.91;1809370;78;21037;-81
2021/06/26 02:35:37;;;;;;;9.15;1.72;;;;;;;15.25;98.91;93085.43;1783598;80;21076;-79
2021/06/26 02:38:04;;;;;;;5.87;2.20;;;;;;;15.24;99.04;93072.95;1783676;80;21034;-80
2021/06/26 02:40:31;;;;;;;6.78;1.80;;;;;;;15.23;99.42;93087.05;1861029;77;21080;-80
2021/06/26 02:42:58;;;;;;;8.23;2.08;;;;;;;15.28;99.71;93078.33;1801909;77;21221;-83
2021/06/26 02:45:24;;;;;;;6.30;2.42;;;;;;;15.31;99.48;93076.09;1823896;77;21353;-82
2021/06/26 02:47:51;;;;;;;5.50;3.85;;;;;;;15.33;98.99;93085.23;1837965;77;21091;-80
2021/06/26 02:50:18;;;;;;;5.30;4.03;;;;;;;15.30;98.89;93084.89;1783671;80;21006;-80
2021/06/26 02:52:44;;;;;;;6.85;2.72;;;;;;;15.34;98.87;93092.25;1783740;80;21002;-81
2021/06/26 02:55:12;;;;;;;4.95;2.05;;;;;;;15.38;98.62;93096.42;1848764;77;21886;-81
2021/06/26 02:57:40;;;;;;;5.45;2.10;;;;;;;15.40;98.80;93107.73;1843551;77;21030;-82
2021/06/26 03:00:09;;;;;;;5.20;2.10;;;;;;;15.38;98.74;93120.31;1841412;77;21004;-82
2021/06/26 03:02:35;;;;;;;13.13;6.83;;;;;;;15.35;98.90;93118.45;1856439;77;21688;-82
2021/06/26 03:05:02;;;;;;;14.93;8.03;;;;;;;15.33;99.20;93121.61;1831113;78;21077;-82
2021/06/26 03:07:28;;;;;;;12.90;7.10;;;;;;;15.37;99.31;93128.37;1858002;77;21107;-81
2021/06/26 03:09:55;;;;;;;5.60;3.00;;;;;;;15.42;99.47;93130.57;1839912;77;21017;-82
2021/06/26 03:12:22;;;;;;;8.75;2.60;;;;;;;15.42;99.44;93124.52;1843949;76;21093;-83
2021/06/26 03:14:48;;;;;;;2.85;1.92;;;;;;;15.39;99.39;93129.48;1855260;77;21027;-82
2021/06/26 03:17:15;;;;;;;6.72;2.10;;;;;;;15.37;99.92;93127.00;1831489;78;21021;-82
2021/06/26 03:19:41;;;;;;;5.00;2.45;;;;;;;15.41;100.00;93125.70;1784644;78;21720;-82
2021/06/26 03:22:08;;;;;;;7.22;2.15;;;;;;;15.46;99.94;93118.33;1842063;77;21021;-82
2021/06/26 03:24:34;;;;;;;5.37;2.02;;;;;;;15.51;99.77;93117.80;1846729;77;21101;-83
2021/06/26 03:27:01;;;;;;;5.70;2.33;;;;;;;15.55;99.47;93119.06;1839488;77;21001;-83
2021/06/26 03:29:28;;;;;;;5.42;1.90;;;;;;;15.59;99.22;93131.30;1858831;77;21373;-82
2021/06/26 03:31:54;;;;;;;7.90;2.58;;;;;;;15.58;99.22;93131.91;1783668;80;22286;-84
2021/06/26 03:34:21;;;;;;;5.58;2.50;;;;;;;15.57;99.36;93131.75;1832593;77;21045;-83
2021/06/26 03:36:47;;;;;;;9.83;3.42;;;;;;;15.59;99.22;93138.92;1808897;77;21046;-83
2021/06/26 03:39:14;;;;;;;6.47;3.08;;;;;;;15.61;98.85;93133.79;1808898;77;21075;-82
2021/06/26 03:41:40;;;;;;;6.37;2.75;;;;;;;15.63;99.14;93123.14;1859240;77;21029;-83
2021/06/26 03:44:07;;;;;;;7.10;2.98;;;;;;;15.62;99.27;93117.50;1832087;78;21122;-83
2021/06/26 03:46:35;;;;;;;7.22;2.72;;;;;;;15.59;99.37;93108.77;1856963;77;21692;-84
2021/06/26 03:49:04;;;;;;;6.62;2.33;;;;;;;15.57;99.59;93111.77;1842233;77;21026;-83
2021/06/26 03:51:30;;;;;;;3.85;2.30;;;;;;;15.54;99.32;93118.91;1845287;77;21013;-83
2021/06/26 03:53:57;;;;;;;4.92;2.00;;;;;;;15.47;99.47;93125.95;1857932;77;21505;-82
2021/06/26 03:56:23;;;;;;;3.47;1.77;;;;;;;15.41;99.88;93124.93;1836851;78;21169;-83
2021/06/26 03:58:50;;;;;;;3.98;1.85;;;;;;;15.32;100.00;93131.64;1865005;77;20990;-83
2021/06/26 04:01:16;;;;;;;3.95;1.82;;;;;;;15.22;100.00;93139.70;1810014;77;21104;-83
2021/06/26 04:03:45;;;;;;;6.40;1.70;;;;;;;15.12;100.00;93142.13;1783299;80;21022;-84
2021/06/26 04:06:11;;;;;;;2.20;1.37;;;;;;;15.09;100.00;93144.96;1782784;80;21085;-84
2021/06/26 04:08:40;;;;;;;4.90;1.85;;;;;;;15.13;100.00;93140.16;1783406;77;21079;-83
2021/06/26 04:11:06;;;;;;;11.75;2.77;;;;;;;15.18;100.00;93147.23;1842023;77;21045;-84
2021/06/26 04:13:33;;;;;;;6.15;1.25;;;;;;;15.23;100.00;93141.83;1794150;77;21476;-83
2021/06/26 04:15:59;;;;;;;4.65;1.40;;;;;;;15.28;100.00;93141.33;1826948;77;21049;-83
2021/06/26 04:18:26;;;;;;;2.45;1.32;;;;;;;15.26;100.00;93147.22;1851233;77;21136;-85
2021/06/26 04:20:52;;;;;;;2.47;1.60;;;;;;;15.21;100.00;93153.83;1834023;77;21745;-83
2021/06/26 04:23:18;;;;;;;6.78;1.90;;;;;;;15.12;100.00;93159.93;1861131;77;20997;-83
2021/06/26 04:25:48;;;;;;;5.47;1.80;;;;;;;15.09;100.00;93160.02;1833987;77;21010;-83
2021/06/26 04:28:14;;;;;;;4.22;1.15;;;;;;;15.05;100.00;93158.14;1849774;77;21017;-83
2021/06/26 04:30:44;;;;;;;3.30;1.37;;;;;;;15.05;100.00;93154.63;1829290;77;21043;-82
2021/06/26 04:33:11;;;;;;;4.15;1.98;;;;;;;15.09;100.00;93154.55;1782021;80;21893;-82
2021/06/26 04:35:38;;;;;;;4.12;2.80;;;;;;;15.13;100.00;93149.14;1782132;80;20956;-82
2021/06/26 04:38:06;;;;;;;11.30;6.67;;;;;;;15.19;100.00;93150.14;1822119;78;21084;-82
2021/06/26 04:40:33;;;;;;;7.97;3.27;;;;;;;15.23;100.00;93141.83;1835744;78;20867;-84
2021/06/26 04:43:00;;;;;;;8.35;2.55;;;;;;;15.27;100.00;93139.80;1836805;77;20978;-82
2021/06/26 04:45:26;;;;;;;5.42;4.33;;;;;;;15.29;100.00;93137.38;1840368;77;21098;-83
2021/06/26 04:47:53;;;;;;;5.50;2.83;;;;;;;15.29;100.00;93133.27;1849111;77;21290;-82
2021/06/26 04:50:19;;;;;;;6.22;2.60;;;;;;;15.30;100.00;93132.83;1825856;78;20927;-81
2021/06/26 04:52:46;;;;;;;6.42;2.22;;;;;;;15.36;100.00;93131.71;1845343;77;21471;-82
2021/06/26 04:55:12;;;;;;;6.92;3.75;;;;;;;15.38;100.00;93132.03;1836399;77;21019;-82
2021/06/26 04:57:39;;;;;;;6.08;4.08;;;;;;;15.46;100.00;93124.42;1833292;77;21218;-82
2021/06/26 05:00:07;;;;;;;7.30;3.50;;;;;;;15.49;100.00;93129.01;1848480;77;20990;-82
2021/06/26 05:02:34;;;;;;;6.17;4.42;;;;;;;15.50;100.00;93127.22;1825928;78;20884;-83
2021/06/26 05:05:00;;;;;;;6.70;5.67;;;;;;;15.56;100.00;93132.93;1782534;78;20946;-84
2021/06/26 05:07:27;;;;;;;31.77;20.02;;;;;;;15.59;100.00;93123.08;1830884;77;20950;-84
2021/06/26 05:09:55;;;;;;;78.85;40.95;;;;;;;15.65;100.00;93122.16;1838167;75;20932;-83
2021/06/26 05:12:22;;;;;;;44.67;22.58;;;;;;;15.70;100.00;93120.23;1782818;77;21009;-85
2021/06/26 05:14:49;;;;;;;27.93;13.90;;;;;;;15.75;100.00;93122.43;1783130;77;21061;-82
2021/06/26 05:17:16;;;;;;;8.78;4.35;;;;;;;15.77;100.00;93120.64;1785723;77;21340;-82
2021/06/26 05:19:44;;;;;;;5.75;3.20;;;;;;;15.77;100.00;93118.66;1773974;80;22026;-83
2021/06/26 05:22:13;;;;;;;11.00;3.60;;;;;;;15.82;100.00;93117.95;1773770;79;20998;-84
2021/06/26 05:24:41;;;;;;;5.17;3.22;;;;;;;15.86;100.00;93124.88;1780158;78;20967;-85
2021/06/26 05:27:08;;;;;;;2.62;1.87;;;;;;;15.87;100.00;93127.80;1789563;77;21050;-83
2021/06/26 05:29:40;;;;;;;2.98;1.62;;;;;;;15.78;100.00;93129.03;1863077;75;21326;-85
2021/06/26 05:32:04;;;;;;;2.90;1.55;;;;;;;15.65;100.00;93129.00;1817018;78;21033;-84
2021/06/26 05:34:31;;;;;;;7.15;1.37;;;;;;;15.53;100.00;93132.42;1782381;78;21108;-83
2021/06/26 05:36:58;;;;;;;3.05;1.32;;;;;;;15.47;100.00;93128.69;1769348;79;21515;-84
2021/06/26 05:39:25;;;;;;;2.05;1.40;;;;;;;15.47;100.00;93127.32;1748477;80;21276;-85
2021/06/26 05:41:54;;;;;;;3.05;1.70;;;;;;;15.51;100.00;93136.98;1779245;79;21077;-85
2021/06/26 05:44:20;;;;;;;4.03;1.72;;;;;;;15.54;100.00;93142.20;1778357;79;21142;-85
2021/06/26 05:46:48;;;;;;;3.67;1.67;;;;;;;15.51;97.55;93139.72;1783024;79;21864;-82
2021/06/26 05:49:14;;;;;;;3.12;1.75;;;;;;;15.53;97.54;93133.79;1778294;79;21959;-82
2021/06/26 05:51:45;;;;;;;3.65;2.02;;;;;;;15.59;98.14;93134.81;1754977;80;21013;-81
2021/06/26 05:54:14;;;;;;;4.65;1.90;;;;;;;15.62;97.83;93136.69;1778179;77;21643;-78
2021/06/26 05:56:41;;;;;;;5.15;1.90;;;;;;;15.66;97.88;93138.75;1841250;76;21030;-81
2021/06/26 05:59:10;;;;;;;3.80;2.25;;;;;;;15.73;97.81;93133.08;1832322;77;22232;-81
2021/06/26 06:02:01;;;;;;;6.25;1.98;;;;;;;15.86;97.80;93132.33;1814521;78;23160;-81
2021/06/26 06:24:59;;;;;;;4.17;1.90;;;;;;;17.22;93.42;93132.41;1815634;78;22724;-83
2021/06/26 06:27:26;;;;;;;7.33;2.55;;;;;;;17.21;93.15;93136.38;1784093;78;21032;-81
2021/06/26 06:29:52;;;;;;;5.78;2.45;;;;;;;17.18;92.96;93133.75;1786771;78;21293;-81
2021/06/26 06:32:20;;;;;;;3.37;2.05;;;;;;;17.15;92.98;93127.77;1778391;78;21124;-80
2021/06/26 06:34:47;;;;;;;6.15;2.65;;;;;;;17.12;92.45;93130.05;1772814;79;21029;-81
2021/06/26 06:37:14;;;;;;;3.67;1.77;;;;;;;17.10;92.14;93123.61;1802848;78;21694;-80
2021/06/26 06:40:48;;;;;;;9.88;4.62;;;;;;;17.14;90.27;93120.13;1842851;76;22853;-83
2021/06/26 06:43:15;;;;;;;4.90;3.60;;;;;;;17.11;90.50;93121.05;1798735;77;21336;-83
2021/06/26 06:45:42;;;;;;;8.73;3.27;;;;;;;17.13;91.44;93115.09;1814857;78;21088;-82
2021/06/26 06:48:10;;;;;;;8.13;3.55;;;;;;;17.11;92.05;93116.92;1817635;78;21114;-85
2021/06/26 06:50:42;;;;;;;4.75;3.12;;;;;;;17.11;92.63;93118.30;1803120;77;21025;-85
2021/06/26 06:53:14;;;;;;;7.00;4.08;;;;;;;17.15;92.55;93113.45;1778481;78;21053;-83
2021/06/26 06:55:41;;;;;;;5.05;3.08;;;;;;;17.19;92.48;93118.21;1810381;77;20977;-81
2021/06/26 06:58:08;;;;;;;2.80;2.15;;;;;;;17.27;92.84;93119.34;1814298;76;22577;-82
2021/06/26 07:00:35;;;;;;;7.60;4.50;;;;;;;17.31;92.66;93117.24;1808986;77;21005;-81
2021/06/26 07:03:03;;;;;;;4.85;2.30;;;;;;;17.31;92.16;93115.26;1803551;77;21007;-81
2021/06/26 07:05:31;;;;;;;5.95;1.95;;;;;;;17.33;91.33;93118.31;1825774;76;21010;-79
2021/06/26 07:08:01;;;;;;;3.67;1.50;;;;;;;17.40;90.61;93114.56;1799168;77;21029;-81
2021/06/26 07:10:30;;;;;;;4.40;1.70;;;;;;;17.48;89.10;93113.09;1797178;77;21134;-83
2021/06/26 07:12:58;;;;;;;4.67;2.10;;;;;;;17.56;89.33;93114.38;1769203;79;20971;-78
2021/06/26 07:15:27;;;;;;;3.83;2.10;;;;;;;17.64;89.33;93112.13;1775838;78;21677;-81
2021/06/26 07:17:55;;;;;;;4.87;2.72;;;;;;;17.68;88.48;93102.56;1802514;78;21148;-81
2021/06/26 07:20:22;;;;;;;7.87;2.67;;;;;;;17.71;88.43;93104.42;1800457;78;20925;-82
2021/06/26 07:22:49;;;;;;;7.55;3.42;;;;;;;17.79;88.48;93104.96;1838934;77;21090;-83
2021/06/26 07:25:22;;;;;;;19.05;9.28;;;;;;;17.91;88.70;93106.10;1801063;78;21060;-83
2021/06/26 07:27:48;;;;;;;8.28;3.20;;;;;;;18.10;88.41;93097.34;1818638;77;21116;-82
2021/06/26 07:30:15;;;;;;;4.33;2.60;;;;;;;18.34;86.49;93099.73;1852089;77;21662;-82
2021/06/26 07:35:41;;;;;;;15.40;7.22;;;;;;;18.67;81.72;93094.51;1861484;76;22312;-84
2021/06/26 07:38:10;;;;;;;9.50;4.37;;;;;;;18.75;82.25;93098.39;1817601;78;21108;-80
2021/06/26 07:40:47;;;;;;;9.63;4.87;;;;;;;18.86;80.85;93092.59;1760118;79;21323;-80
2021/06/26 07:43:15;;;;;;;6.53;3.52;;;;;;;18.97;82.16;93089.41;1796598;78;21068;-80
2021/06/26 07:45:43;;;;;;;5.62;3.12;;;;;;;19.13;82.48;93085.59;1813709;78;21088;-82
2021/06/26 07:48:10;;;;;;;5.85;3.35;;;;;;;19.30;82.60;93091.60;1744440;80;20974;-79
2021/06/26 07:50:41;;;;;;;4.85;2.37;;;;;;;19.49;82.09;93093.75;1688694;84;20979;-79
2021/06/26 07:53:08;;;;;;;5.95;2.80;;;;;;;19.67;80.58;93092.98;1730816;81;22284;-80
2021/06/26 07:55:36;;;;;;;9.43;3.27;;;;;;;19.81;79.04;93090.98;1796660;78;21064;-80
2021/06/26 07:58:02;;;;;;;8.40;4.17;;;;;;;19.93;77.40;93094.17;1780552;76;21053;-78
2021/06/26 08:00:29;;;;;;;8.70;3.85;;;;;;;20.05;77.53;93085.59;1756854;79;21092;-82
2021/06/26 08:02:55;;;;;;;5.42;3.05;;;;;;;20.18;75.96;93097.81;1780564;79;21613;-80
2021/06/26 08:05:22;;;;;;;6.40;3.15;;;;;;;20.29;74.37;93089.19;1768097;79;21189;-82
2021/06/26 08:07:51;;;;;;;8.25;3.52;;;;;;;20.44;73.71;93093.43;1765177;80;21033;-80
2021/06/26 08:10:18;;;;;;;7.35;3.37;;;;;;;20.55;72.55;93102.01;1745035;80;21823;-81
2021/06/26 08:12:48;;;;;;;5.35;2.50;;;;;;;20.64;72.48;93095.67;1789149;79;21021;-77
2021/06/26 08:15:15;;;;;;;6.30;2.20;;;;;;;20.71;71.79;93106.38;1788884;79;21049;-80
2021/06/26 08:17:42;;;;;;;5.47;3.02;;;;;;;20.72;71.02;93104.38;1774776;79;21060;-79
2021/06/26 08:20:13;;;;;;;8.85;3.80;;;;;;;20.74;71.04;93107.45;1788537;80;21158;-81
2021/06/26 08:22:43;;;;;;;9.90;3.90;;;;;;;20.77;72.06;93111.43;1727708;81;21077;-81
2021/06/26 08:25:10;;;;;;;7.53;3.00;;;;;;;20.87;72.72;93110.75;1761687;79;21063;-80
2021/06/26 08:27:37;;;;;;;10.80;2.67;;;;;;;20.94;72.00;93114.55;1804601;77;21046;-80
2021/06/26 08:30:05;;;;;;;7.25;2.98;;;;;;;20.94;71.31;93110.41;1832620;77;22308;-83
2021/06/26 08:32:32;;;;;;;4.30;2.60;;;;;;;20.95;71.11;93119.46;1769920;78;21086;-81
2021/06/26 08:38:11;;;;;;;8.48;3.92;;;;;;;21.08;69.52;93113.11;1870894;76;26130;-82
2021/06/26 08:40:38;;;;;;;4.17;2.90;;;;;;;21.09;68.55;93125.69;1779971;78;21092;-82
2021/06/26 08:43:05;;;;;;;6.87;2.52;;;;;;;21.14;67.99;93121.51;1798577;78;22349;-80
2021/06/26 08:45:37;;;;;;;3.55;2.42;;;;;;;21.18;66.81;93123.50;1768159;78;21025;-82
2021/06/26 08:48:05;;;;;;;5.60;2.40;;;;;;;21.21;66.72;93121.95;1688070;80;21097;-79
2021/06/26 08:50:32;;;;;;;;;;;;;;;;;;;;;
2021/06/26 08:53:00;;;;;;;4.17;2.90;;;;;;;21.36;66.50;93127.54;1739833;80;21037;-79
2021/06/26 08:55:27;;;;;;;5.33;3.00;;;;;;;21.44;62.87;93120.44;1706071;81;21117;-79
2021/06/26 08:57:54;;;;;;;6.37;2.65;;;;;;;21.52;62.58;93122.98;1744096;78;21045;-82
2021/06/26 09:00:25;;;;;;;7.40;2.35;;;;;;;21.57;63.26;93121.56;1745195;79;21017;-81
2021/06/26 09:03:14;;;;;;;4.53;2.12;;;;;;;21.63;62.51;93128.60;1743633;79;21072;-79
2021/06/26 09:05:43;;;;;;;4.60;2.83;;;;;;;21.65;62.21;93118.58;1774318;79;21988;-80
2021/06/26 09:08:13;;;;;;;5.95;2.20;;;;;;;21.63;62.57;93119.68;1785890;78;21798;-82
2021/06/26 09:10:41;;;;;;;4.05;2.60;;;;;;;21.59;61.05;93117.72;1803519;79;21377;-80
2021/06/26 09:13:18;;;;;;;8.28;2.40;;;;;;;21.55;62.39;93115.13;1790302;79;20987;-80
2021/06/26 09:15:46;;;;;;;6.10;2.60;;;;;;;21.55;61.88;93121.26;1778709;79;21007;-78
2021/06/26 09:18:21;;;;;;;6.05;2.62;;;;;;;21.53;62.12;93115.45;1780624;79;21080;-81
2021/06/26 09:20:54;;;;;;;16.02;3.35;;;;;;;21.53;63.00;93120.36;1784622;79;21082;-82
2021/06/26 09:23:36;;;;;;;4.42;2.35;;;;;;;21.55;64.72;93111.58;1801216;79;21095;-83
2021/06/26 09:26:07;;;;;;;8.05;2.52;;;;;;;21.58;63.14;93112.78;1786894;78;21117;-82
2021/06/26 09:28:34;;;;;;;6.15;2.62;;;;;;;21.59;61.95;93106.66;1794858;79;20871;-80
2021/06/26 09:31:01;;;;;;;4.45;2.67;;;;;;;21.61;62.58;93106.16;1793599;79;21607;-83
2021/06/26 09:33:28;;;;;;;5.17;2.95;;;;;;;21.63;63.60;93114.77;1783921;79;21092;-81
2021/06/26 09:36:14;;;;;;;6.62;2.70;;;;;;;21.61;63.77;93106.92;1752586;77;21041;-83
2021/06/26 09:39:01;;;;;;;4.05;2.70;;;;;;;21.57;64.10;93103.58;1733320;77;20993;-84
2021/06/26 09:41:40;;;;;;;4.85;2.95;;;;;;;21.55;64.16;93104.06;1752882;80;21051;-79
2021/06/26 09:44:28;;;;;;;6.12;2.75;;;;;;;21.58;65.06;93105.86;1783836;79;21037;-83
2021/06/26 09:47:07;;;;;;;5.87;2.80;;;;;;;21.65;65.62;93107.51;1662473;83;22426;-82
2021/06/26 10:00:28;;;;;;;4.62;2.58;;;;;;;21.76;61.43;93113.88;1738325;81;21043;-80
2021/06/26 10:03:17;;;;;;;8.78;3.60;;;;;;;21.73;62.76;93105.14;1725757;82;22543;-80
2021/06/26 10:05:51;;;;;;;5.15;2.77;;;;;;;21.71;62.98;93100.09;1655261;84;21129;-81
2021/06/26 10:11:34;;;;;;;6.72;3.70;;;;;;;21.77;65.28;93102.95;1768732;79;21444;-80
2021/06/26 10:14:11;;;;;;;3.95;2.83;;;;;;;21.75;65.76;93105.44;1785248;78;21084;-80
2021/06/26 10:16:47;;;;;;;7.70;3.65;;;;;;;21.68;63.77;93100.27;1687580;80;21038;-83
2021/06/26 10:19:16;;;;;;;8.85;5.70;;;;;;;21.71;63.68;93095.18;1731252;79;21146;-78
2021/06/26 10:21:44;;;;;;;4.33;3.65;;;;;;;21.73;65.98;93085.14;1700967;78;21584;-80
2021/06/26 10:24:15;;;;;;;7.72;4.17;;;;;;;21.76;67.68;93088.34;1766228;79;21128;-78
2021/06/26 10:26:43;;;;;;;10.40;5.12;;;;;;;21.83;67.70;93104.59;1771602;79;21101;-80
2021/06/26 10:29:10;;;;;;;8.78;5.42;;;;;;;21.88;66.85;93106.55;1784695;78;22410;-81
2021/06/26 10:31:44;;;;;;;8.50;5.50;;;;;;;21.86;67.05;93097.97;1804107;77;20949;-82
2021/06/26 10:34:18;;;;;;;11.65;5.40;;;;;;;21.80;67.85;93094.46;1796620;77;21028;-82
2021/06/26 10:36:52;;;;;;;7.65;4.70;;;;;;;21.79;67.63;93099.09;1799361;77;21923;-79
2021/06/26 10:39:32;;;;;;;9.93;4.40;;;;;;;21.80;67.32;93096.47;1795512;77;21057;-79
2021/06/26 10:42:12;;;;;;;6.60;4.60;;;;;;;21.84;68.11;93099.81;1795153;79;21122;-79
2021/06/26 10:44:53;;;;;;;10.48;4.22;;;;;;;21.93;68.14;93098.36;1743400;79;21088;-82
2021/06/26 10:47:38;;;;;;;8.20;4.70;;;;;;;21.99;67.27;93101.22;1772596;78;21324;-79
2021/06/26 10:50:11;;;;;;;7.28;3.77;;;;;;;21.96;67.54;93111.23;1771341;79;21299;-81
2021/06/26 10:53:04;;;;;;;7.10;3.62;;;;;;;21.91;65.87;93109.13;1734370;81;21252;-80
2021/06/26 10:55:39;;;;;;;6.97;3.30;;;;;;;21.89;65.55;93108.06;1780987;77;21175;-82
2021/06/26 10:58:09;;;;;;;8.63;4.10;;;;;;;21.89;64.78;93117.75;1767194;79;21057;-83
2021/06/26 11:00:37;;;;;;;3.85;3.35;;;;;;;21.87;64.74;93120.25;1789615;77;21433;-81
2021/06/26 11:03:23;;;;;;;6.22;3.92;;;;;;;21.81;64.98;93118.75;1798864;77;21084;-82
2021/06/26 11:05:51;;;;;;;10.08;4.78;;;;;;;21.81;66.67;93125.06;1795954;77;21631;-82
2021/06/26 11:08:21;;;;;;;11.70;4.75;;;;;;;21.85;67.04;93129.62;1753633;79;21077;-78
2021/06/26 11:11:00;;;;;;;8.75;5.37;;;;;;;21.87;67.71;93124.40;1734673;80;20986;-80
2021/06/26 11:13:30;;;;;;;11.15;5.05;;;;;;;21.82;68.65;93120.30;1741059;79;21046;-82
2021/06/26 11:16:06;;;;;;;8.60;5.65;;;;;;;21.72;68.83;93123.74;1796356;76;21074;-83
2021/06/26 11:18:34;;;;;;;11.22;5.78;;;;;;;21.64;69.46;93135.03;1810460;76;21044;-82
2021/06/26 11:21:01;;;;;;;8.65;5.85;;;;;;;21.54;68.61;93134.33;1793546;77;21930;-81
2021/06/26 11:23:28;;;;;;;7.42;5.28;;;;;;;21.49;68.83;93127.31;1834886;76;20987;-80
2021/06/26 11:26:03;;;;;;;6.33;4.37;;;;;;;21.45;68.64;93123.97;1791777;77;21143;-81
2021/06/26 11:28:42;;;;;;;11.38;5.15;;;;;;;21.36;68.10;93139.22;1793048;78;21023;-79
2021/06/26 11:31:12;;;;;;;7.12;5.15;;;;;;;21.18;69.90;93146.38;1763808;80;21049;-81
2021/06/26 11:33:42;;;;;;;9.13;4.87;;;;;;;20.85;70.82;93151.92;1756220;79;21314;-80
2021/06/26 11:36:13;;;;;;;7.15;4.95;;;;;;;20.53;71.41;93154.79;1831344;76;21081;-80
2021/06/26 11:38:39;;;;;;;7.95;4.28;;;;;;;20.29;71.97;93154.06;1791148;77;21046;-81
2021/06/26 11:41:20;;;;;;;9.20;4.47;;;;;;;20.11;73.41;93157.61;1844141;77;20999;-80
2021/06/26 11:44:07;;;;;;;11.50;5.67;;;;;;;20.04;74.49;93155.79;1807726;76;21366;-79
2021/06/26 11:46:41;;;;;;;9.88;4.17;;;;;;;19.97;75.75;93151.95;1806525;77;21081;-82
2021/06/26 11:49:07;;;;;;;8.38;4.28;;;;;;;19.96;75.64;93159.48;1797268;76;21096;-81
2021/06/26 11:51:34;;;;;;;5.22;4.00;;;;;;;20.00;76.13;93166.98;1776497;78;21021;-81
2021/06/26 11:54:04;;;;;;;7.42;3.72;;;;;;;20.05;75.86;93176.04;1804969;77;21143;-81
2021/06/26 11:56:40;;;;;;;6.70;4.10;;;;;;;20.10;75.29;93174.65;1792072;77;21049;-80
2021/06/26 11:59:07;;;;;;;7.33;4.03;;;;;;;20.11;74.56;93176.94;1780840;78;21772;-81
2021/06/26 12:01:36;;;;;;;8.90;4.45;;;;;;;20.10;74.04;93174.65;1801807;78;21046;-80
2021/06/26 12:04:08;;;;;;;8.10;3.53;;;;;;;20.07;74.46;93172.81;1786973;77;21627;-81
2021/06/26 12:06:39;;;;;;;9.45;4.28;;;;;;;19.99;73.95;93177.88;1762479;80;21069;-78
2021/06/26 12:09:18;;;;;;;10.23;4.58;;;;;;;19.91;74.49;93184.94;1805939;79;21102;-80
2021/06/26 12:11:51;;;;;;;7.78;4.28;;;;;;;19.86;75.54;93184.94;1790502;78;21119;-79
2021/06/26 12:14:33;;;;;;;9.55;3.90;;;;;;;19.87;76.46;93173.29;1735473;75;21094;-83
2021/06/26 12:17:07;;;;;;;8.03;3.95;;;;;;;19.92;76.40;93178.19;1793592;77;21109;-81
2021/06/26 12:19:35;;;;;;;7.95;4.62;;;;;;;19.96;76.98;93164.23;1759844;77;20989;-81
2021/06/26 12:22:08;;;;;;;6.60;4.15;;;;;;;20.01;76.53;93163.61;1689284;79;21248;-81